createdAt,value
2023-02-17T00:01:16.031Z,9.70
2023-02-17T00:03:44.078Z,9.70
2023-02-17T00:06:13.891Z,9.70
2023-02-17T00:08:41.965Z,9.70
2023-02-17T00:11:10.200Z,9.70
2023-02-17T00:13:38.274Z,9.70
2023-02-17T00:16:12.291Z,9.70
2023-02-17T00:18:40.284Z,9.70
2023-02-17T00:21:16.496Z,9.70
2023-02-17T00:23:45.328Z,9.70
2023-02-17T00:26:13.916Z,9.70
2023-02-17T00:28:43.864Z,9.70
2023-02-17T00:31:16.587Z,9.70
2023-02-17T00:33:44.904Z,9.70
2023-02-17T00:36:14.458Z,9.70
2023-02-17T00:38:42.433Z,9.70
2023-02-17T00:41:10.577Z,9.70
2023-02-17T00:43:38.562Z,9.70
2023-02-17T00:46:07.346Z,9.70
2023-02-17T00:48:36.951Z,9.60
2023-02-17T00:51:06.420Z,9.70
2023-02-17T00:53:35.996Z,9.70
2023-02-17T00:56:04.882Z,9.70
2023-02-17T00:58:33.088Z,9.70
2023-02-17T01:01:01.528Z,9.70
2023-02-17T01:03:30.337Z,9.70
2023-02-17T01:06:00.542Z,9.70
2023-02-17T01:08:28.487Z,9.70
2023-02-17T01:10:56.494Z,9.70
2023-02-17T01:13:25.649Z,9.70
2023-02-17T01:15:54.479Z,9.70
2023-02-17T01:18:24.876Z,9.70
2023-02-17T01:20:53.262Z,9.70
2023-02-17T01:23:22.638Z,9.60
2023-02-17T01:25:51.557Z,9.70
2023-02-17T01:28:22.139Z,9.70
2023-02-17T01:30:52.166Z,9.70
2023-02-17T01:33:20.144Z,9.60
2023-02-17T01:35:48.115Z,9.60
2023-02-17T01:38:16.061Z,9.50
2023-02-17T01:40:49.485Z,9.40
2023-02-17T01:43:18.891Z,9.20
2023-02-17T01:45:52.849Z,9.10
2023-02-17T01:48:23.801Z,9.00
2023-02-17T01:50:54.584Z,9.00
2023-02-17T01:53:27.552Z,8.90
2023-02-17T01:55:57.518Z,8.80
2023-02-17T01:58:27.307Z,8.80
2023-02-17T02:00:59.214Z,8.80
2023-02-17T02:03:28.035Z,8.70
2023-02-17T02:05:56.885Z,8.80
2023-02-17T02:08:24.936Z,8.70
2023-02-17T02:10:56.125Z,8.70
2023-02-17T02:13:24.160Z,8.70
2023-02-17T02:16:02.521Z,8.70
2023-02-17T02:18:43.574Z,8.70
2023-02-17T02:21:38.029Z,8.70
2023-02-17T02:24:19.505Z,8.70
2023-02-17T02:27:24.881Z,8.70
2023-02-17T02:30:29.717Z,8.70
2023-02-17T02:33:05.160Z,8.80
2023-02-17T02:35:43.422Z,8.80
2023-02-17T02:38:16.665Z,8.70
2023-02-17T02:40:48.382Z,8.80
2023-02-17T02:43:16.922Z,8.80
2023-02-17T02:45:45.061Z,8.80
2023-02-17T02:48:14.556Z,8.80
2023-02-17T02:50:58.673Z,8.80
2023-02-17T02:53:50.605Z,8.90
2023-02-17T02:56:32.827Z,8.90
2023-02-17T02:59:10.728Z,8.90
2023-02-17T03:01:46.347Z,8.90
2023-02-17T03:04:20.281Z,8.90
2023-02-17T03:06:51.881Z,8.90
2023-02-17T03:09:23.478Z,8.80
2023-02-17T03:11:51.964Z,8.90
2023-02-17T03:14:22.430Z,8.90
2023-02-17T03:16:51.708Z,8.90
2023-02-17T03:19:24.523Z,9.00
2023-02-17T03:21:57.014Z,8.90
2023-02-17T03:24:25.297Z,8.90
2023-02-17T03:26:53.298Z,8.90
2023-02-17T03:29:21.214Z,9.00
2023-02-17T03:31:49.259Z,9.00
2023-02-17T03:34:17.270Z,9.00
2023-02-17T03:36:46.666Z,9.00
2023-02-17T03:39:14.592Z,9.00
2023-02-17T03:41:42.648Z,9.00
2023-02-17T03:44:10.538Z,9.00
2023-02-17T03:46:41.060Z,9.00
2023-02-17T03:49:09.030Z,9.00
2023-02-17T03:51:37.048Z,8.90
2023-02-17T03:54:06.498Z,8.90
2023-02-17T03:56:34.566Z,8.90
2023-02-17T03:59:02.642Z,8.90
2023-02-17T04:01:30.906Z,8.90
2023-02-17T04:03:58.923Z,8.90
2023-02-17T04:06:26.970Z,8.90
2023-02-17T04:08:54.951Z,8.90
2023-02-17T04:11:24.355Z,8.90
2023-02-17T04:13:52.567Z,8.90
2023-02-17T04:16:20.708Z,8.90
2023-02-17T04:18:48.615Z,8.90
2023-02-17T04:21:16.624Z,8.90
2023-02-17T04:23:44.633Z,8.90
2023-02-17T04:26:12.939Z,8.90
2023-02-17T04:28:43.404Z,9.00
2023-02-17T04:31:11.715Z,8.90
2023-02-17T04:33:39.859Z,9.00
2023-02-17T04:36:10.397Z,9.00
2023-02-17T04:38:39.098Z,9.00
2023-02-17T04:41:07.599Z,8.90
2023-02-17T04:43:35.780Z,9.00
2023-02-17T04:46:07.686Z,9.00
2023-02-17T04:48:35.919Z,8.90
2023-02-17T04:51:04.101Z,9.00
2023-02-17T04:53:32.040Z,9.00
2023-02-17T04:55:59.968Z,9.00
2023-02-17T04:58:27.949Z,8.90
2023-02-17T05:00:55.946Z,9.00
2023-02-17T05:03:25.340Z,9.00
2023-02-17T05:05:53.336Z,9.00
2023-02-17T05:08:21.314Z,9.00
2023-02-17T05:10:49.243Z,9.00
2023-02-17T05:13:17.258Z,9.00
2023-02-17T05:15:45.526Z,9.00
2023-02-17T05:18:13.642Z,9.00
2023-02-17T05:20:42.991Z,9.00
2023-02-17T05:23:10.915Z,9.00
2023-02-17T05:25:40.917Z,9.00
2023-02-17T05:28:08.956Z,9.00
2023-02-17T05:30:36.954Z,9.00
2023-02-17T05:33:05.254Z,9.00
2023-02-17T05:35:35.606Z,9.00
2023-02-17T05:38:04.937Z,9.10
2023-02-17T05:40:32.982Z,9.10
2023-02-17T05:43:01.058Z,9.10
2023-02-17T05:45:28.990Z,9.10
2023-02-17T05:47:56.937Z,9.10
2023-02-17T05:50:24.915Z,9.10
2023-02-17T05:52:52.878Z,9.10
2023-02-17T05:55:22.842Z,9.10
2023-02-17T05:57:50.771Z,9.10
2023-02-17T06:00:19.040Z,9.10
2023-02-17T06:02:47.061Z,9.10
2023-02-17T06:05:15.278Z,9.10
2023-02-17T06:07:43.989Z,9.00
2023-02-17T06:10:12.717Z,9.10
2023-02-17T06:12:41.968Z,9.10
2023-02-17T06:15:10.382Z,9.00
2023-02-17T06:17:38.479Z,9.10
2023-02-17T06:20:08.082Z,9.10
2023-02-17T06:22:36.504Z,9.10
2023-02-17T06:25:04.473Z,9.10
2023-02-17T06:27:32.703Z,9.10
2023-02-17T06:30:02.141Z,9.10
2023-02-17T06:32:30.230Z,9.10
2023-02-17T06:34:58.198Z,9.10
2023-02-17T06:37:26.473Z,9.10
2023-02-17T06:39:54.436Z,9.10
2023-02-17T06:42:22.359Z,9.10
2023-02-17T06:44:50.261Z,9.10
2023-02-17T06:47:19.726Z,9.00
2023-02-17T06:49:47.729Z,9.10
2023-02-17T06:52:15.649Z,9.10
2023-02-17T06:54:43.603Z,9.10
2023-02-17T06:57:11.655Z,9.10
2023-02-17T06:59:39.600Z,9.10
2023-02-17T07:02:08.545Z,9.10
2023-02-17T07:04:37.949Z,9.10
2023-02-17T07:07:06.177Z,9.10
2023-02-17T07:09:34.361Z,9.10
2023-02-17T07:12:02.617Z,9.10
2023-02-17T07:14:30.599Z,9.10
2023-02-17T07:16:58.554Z,9.10
2023-02-17T07:19:26.715Z,9.00
2023-02-17T07:21:56.431Z,9.10
2023-02-17T07:24:24.486Z,9.10
2023-02-17T07:26:53.739Z,9.10
2023-02-17T07:29:21.694Z,9.10
2023-02-17T07:31:49.800Z,9.10
2023-02-17T07:34:17.827Z,9.10
2023-02-17T07:36:46.046Z,9.10
2023-02-17T07:39:15.728Z,9.20
2023-02-17T07:41:43.758Z,9.10
2023-02-17T07:44:12.114Z,9.20
2023-02-17T07:46:40.702Z,9.20
2023-02-17T07:49:08.725Z,9.20
2023-02-17T07:51:37.192Z,9.20
2023-02-17T07:54:05.507Z,9.20
2023-02-17T07:56:34.824Z,9.30
2023-02-17T07:59:02.853Z,9.30
2023-02-17T08:01:30.837Z,9.30
2023-02-17T08:03:58.860Z,9.30
2023-02-17T08:06:27.468Z,9.40
2023-02-17T08:09:13.217Z,9.30
2023-02-17T08:12:01.227Z,9.40
2023-02-17T08:14:31.505Z,9.40
2023-02-17T08:16:59.931Z,9.40
2023-02-17T08:19:39.492Z,9.40
2023-02-17T08:22:14.648Z,9.40
2023-02-17T08:24:42.596Z,9.40
2023-02-17T08:27:12.099Z,9.40
2023-02-17T08:29:40.179Z,9.40
2023-02-17T08:32:08.548Z,9.40
2023-02-17T08:34:36.640Z,9.50
2023-02-17T08:37:06.020Z,9.50
2023-02-17T08:39:35.056Z,9.60
2023-02-17T08:42:03.737Z,9.60
2023-02-17T08:44:36.326Z,9.60
2023-02-17T08:47:05.985Z,9.60
2023-02-17T08:49:34.827Z,9.60
2023-02-17T08:52:03.352Z,9.60
2023-02-17T08:54:32.558Z,9.60
2023-02-17T08:57:00.603Z,9.60
2023-02-17T08:59:28.681Z,9.60
2023-02-17T09:02:01.259Z,9.60
2023-02-17T09:04:29.597Z,9.70
2023-02-17T09:06:58.565Z,9.60
2023-02-17T09:09:27.869Z,9.70
2023-02-17T09:11:56.358Z,9.70
2023-02-17T09:14:24.978Z,9.70
2023-02-17T09:16:54.176Z,9.70
2023-02-17T09:19:24.040Z,9.70
2023-02-17T09:21:52.219Z,9.70
2023-02-17T09:24:20.599Z,9.70
2023-02-17T09:26:49.128Z,9.70
2023-02-17T09:29:17.289Z,9.70
2023-02-17T09:31:46.050Z,9.70
2023-02-17T09:34:15.190Z,9.70
2023-02-17T09:36:44.530Z,9.70
2023-02-17T09:39:14.171Z,9.80
2023-02-17T09:41:45.010Z,9.70
2023-02-17T09:44:20.666Z,9.70
2023-02-17T09:47:01.640Z,9.70
2023-02-17T09:49:39.133Z,9.80
2023-02-17T09:52:13.919Z,9.80
2023-02-17T09:54:52.881Z,9.80
2023-02-17T09:57:24.629Z,9.90
2023-02-17T09:59:58.615Z,9.90
2023-02-17T10:02:34.423Z,9.90
2023-02-17T10:05:06.815Z,9.90
2023-02-17T10:07:40.799Z,9.90
2023-02-17T10:10:12.663Z,9.90
2023-02-17T10:12:44.515Z,9.90
2023-02-17T10:15:17.912Z,10.00
2023-02-17T10:17:52.514Z,10.00
2023-02-17T10:20:24.444Z,10.00
2023-02-17T10:23:01.274Z,9.90
2023-02-17T10:25:46.437Z,9.90
2023-02-17T10:28:19.868Z,9.90
2023-02-17T10:30:54.740Z,10.00
2023-02-17T10:33:29.896Z,10.00
2023-02-17T10:36:10.273Z,10.00
2023-02-17T10:38:50.265Z,10.00
2023-02-17T10:41:22.355Z,10.00
2023-02-17T10:43:51.243Z,10.00
2023-02-17T10:46:26.151Z,10.00
2023-02-17T10:48:56.651Z,10.00
2023-02-17T10:51:27.514Z,10.00
2023-02-17T10:54:01.274Z,10.00
2023-02-17T10:56:36.767Z,10.10
2023-02-17T10:59:08.446Z,10.00
2023-02-17T11:01:38.099Z,10.00
2023-02-17T11:04:08.632Z,10.00
2023-02-17T11:06:42.146Z,10.00
2023-02-17T11:09:21.224Z,10.00
2023-02-17T11:11:59.566Z,10.00
2023-02-17T11:14:30.050Z,10.00
2023-02-17T11:17:00.413Z,10.00
2023-02-17T11:19:30.694Z,10.00
2023-02-17T11:22:00.880Z,10.00
2023-02-17T11:24:32.613Z,10.00
2023-02-17T11:27:03.484Z,10.10
2023-02-17T11:29:33.157Z,10.00
2023-02-17T11:32:04.933Z,10.10
2023-02-17T11:34:34.794Z,10.10
2023-02-17T11:37:04.806Z,10.10
2023-02-17T11:39:40.093Z,10.10
2023-02-17T11:42:16.982Z,10.20
2023-02-17T11:44:45.190Z,10.20
2023-02-17T11:47:22.148Z,10.30
2023-02-17T11:50:39.212Z,10.20
2023-02-17T11:53:21.172Z,10.20
2023-02-17T11:56:01.711Z,10.30
2023-02-17T11:58:38.989Z,10.30
2023-02-17T12:01:20.632Z,10.30
2023-02-17T12:04:25.524Z,10.30
2023-02-17T12:07:07.451Z,10.30
2023-02-17T12:09:44.080Z,10.30
2023-02-17T12:12:23.059Z,10.40
2023-02-17T12:15:09.756Z,10.50
2023-02-17T12:17:47.633Z,10.40
2023-02-17T12:20:35.869Z,10.50
2023-02-17T12:23:14.353Z,10.50
2023-02-17T12:25:49.096Z,10.50
2023-02-17T12:28:43.032Z,10.50
2023-02-17T12:31:22.273Z,10.50
2023-02-17T12:33:59.645Z,10.60
2023-02-17T12:36:32.604Z,10.60
2023-02-17T12:39:03.877Z,10.60
2023-02-17T12:41:36.389Z,10.60
2023-02-17T12:44:11.089Z,10.60
2023-02-17T12:46:42.080Z,10.60
2023-02-17T12:49:14.223Z,10.70
2023-02-17T12:51:46.292Z,10.70
2023-02-17T12:54:19.718Z,10.70
2023-02-17T12:56:59.369Z,10.80
2023-02-17T12:59:35.156Z,10.80
2023-02-17T13:02:05.658Z,10.80
2023-02-17T13:04:35.232Z,10.80
2023-02-17T13:07:35.852Z,10.80
2023-02-17T13:10:04.851Z,10.90
2023-02-17T13:12:42.779Z,10.90
2023-02-17T13:15:31.629Z,10.90
2023-02-17T13:18:03.051Z,10.90
2023-02-17T13:20:53.688Z,10.90
2023-02-17T13:23:31.337Z,10.90
2023-02-17T13:26:09.241Z,10.90
2023-02-17T13:28:38.938Z,10.90
2023-02-17T13:31:18.694Z,10.90
2023-02-17T13:33:49.946Z,10.90
2023-02-17T13:36:22.539Z,11.00
2023-02-17T13:39:01.562Z,11.00
2023-02-17T13:41:34.467Z,11.00
2023-02-17T13:44:21.352Z,11.10
2023-02-17T13:46:51.610Z,11.10
2023-02-17T13:49:24.335Z,11.10
2023-02-17T13:51:52.367Z,11.10
2023-02-17T13:54:22.151Z,11.10
2023-02-17T13:56:54.005Z,11.10
2023-02-17T13:59:27.136Z,11.10
2023-02-17T14:01:59.045Z,11.20
2023-02-17T14:04:30.696Z,11.20
2023-02-17T14:07:04.135Z,11.20
2023-02-17T14:09:33.560Z,11.20
2023-02-17T14:12:04.472Z,11.20
2023-02-17T14:14:34.277Z,11.10
2023-02-17T14:17:05.956Z,11.10
2023-02-17T14:19:44.328Z,11.10
2023-02-17T14:22:28.907Z,11.00
2023-02-17T14:25:02.322Z,11.10
2023-02-17T14:27:30.435Z,11.00
2023-02-17T14:29:58.466Z,11.00
2023-02-17T14:32:33.359Z,11.00
2023-02-17T14:35:21.411Z,11.00
2023-02-17T14:37:50.297Z,11.00
2023-02-17T14:40:20.736Z,10.90
2023-02-17T14:42:48.906Z,10.90
2023-02-17T14:45:18.004Z,10.90
2023-02-17T14:47:48.187Z,10.80
2023-02-17T14:50:17.407Z,10.90
2023-02-17T14:52:47.490Z,10.80
2023-02-17T14:55:22.982Z,10.80
2023-02-17T14:57:50.922Z,10.80
2023-02-17T15:00:20.078Z,10.80
2023-02-17T15:02:51.267Z,10.80
2023-02-17T15:05:19.334Z,10.80
2023-02-17T15:07:47.793Z,10.80
2023-02-17T15:10:21.469Z,10.80
2023-02-17T15:12:49.537Z,10.80
2023-02-17T15:15:18.792Z,10.80
2023-02-17T15:17:46.977Z,10.80
2023-02-17T15:20:17.890Z,10.80
2023-02-17T15:22:45.921Z,10.80
2023-02-17T15:25:16.230Z,10.80
2023-02-17T15:27:44.893Z,10.90
2023-02-17T15:30:15.102Z,10.90
2023-02-17T15:32:43.853Z,10.90
2023-02-17T15:35:17.816Z,10.90
2023-02-17T15:37:46.124Z,10.80
2023-02-17T15:40:15.598Z,10.80
2023-02-17T15:42:44.022Z,10.70
2023-02-17T15:45:14.915Z,10.70
2023-02-17T15:47:43.062Z,10.70
2023-02-17T15:50:20.406Z,10.70
2023-02-17T15:52:49.121Z,10.60
2023-02-17T15:55:18.523Z,10.60
2023-02-17T15:57:49.959Z,10.60
2023-02-17T16:00:21.605Z,10.60
2023-02-17T16:02:49.686Z,10.60
2023-02-17T16:05:24.562Z,10.60
2023-02-17T16:07:52.547Z,10.50
2023-02-17T16:10:23.756Z,10.60
2023-02-17T16:12:53.195Z,10.50
2023-02-17T16:15:23.942Z,10.60
2023-02-17T16:17:52.373Z,10.50
2023-02-17T16:20:24.210Z,10.50
2023-02-17T16:22:52.774Z,10.50
2023-02-17T16:25:21.821Z,10.60
2023-02-17T16:27:52.084Z,10.50
2023-02-17T16:30:23.969Z,10.50
2023-02-17T16:32:52.616Z,10.50
2023-02-17T16:35:23.782Z,10.50
2023-02-17T16:37:55.177Z,10.50
2023-02-17T16:40:26.177Z,10.50
2023-02-17T16:42:54.205Z,10.50
2023-02-17T16:45:23.663Z,10.40
2023-02-17T16:47:53.222Z,10.40
2023-02-17T16:50:27.446Z,10.40
2023-02-17T16:52:57.764Z,10.40
2023-02-17T16:55:29.916Z,10.40
2023-02-17T16:57:58.233Z,10.40
2023-02-17T17:00:29.727Z,10.40
2023-02-17T17:02:58.218Z,10.40
2023-02-17T17:05:29.351Z,10.40
2023-02-17T17:07:58.136Z,10.40
2023-02-17T17:10:28.369Z,10.40
2023-02-17T17:12:56.449Z,10.40
2023-02-17T17:15:25.140Z,10.40
2023-02-17T17:17:57.223Z,10.40
2023-02-17T17:20:31.987Z,10.40
2023-02-17T17:23:01.305Z,10.40
2023-02-17T17:25:30.076Z,10.30
2023-02-17T17:27:58.548Z,10.40
2023-02-17T17:30:28.992Z,10.30
2023-02-17T17:32:57.062Z,10.30
2023-02-17T17:35:25.060Z,10.30
2023-02-17T17:37:54.368Z,10.30
2023-02-17T17:40:24.792Z,10.30
2023-02-17T17:42:53.449Z,10.30
2023-02-17T17:45:21.500Z,10.30
2023-02-17T17:47:49.513Z,10.30
2023-02-17T17:50:20.824Z,10.30
2023-02-17T17:52:49.174Z,10.30
2023-02-17T17:55:18.662Z,10.30
2023-02-17T17:57:48.078Z,10.30
2023-02-17T18:00:18.284Z,10.30
2023-02-17T18:02:46.247Z,10.30
2023-02-17T18:05:14.388Z,10.30
2023-02-17T18:07:43.604Z,10.20
2023-02-17T18:10:13.194Z,10.20
2023-02-17T18:12:44.799Z,10.20
2023-02-17T18:15:13.564Z,10.20
2023-02-17T18:17:43.165Z,10.20
2023-02-17T18:20:12.621Z,10.20
2023-02-17T18:22:40.883Z,10.20
2023-02-17T18:25:09.247Z,10.20
2023-02-17T18:27:43.616Z,10.20
2023-02-17T18:30:13.857Z,10.20
2023-02-17T18:32:44.067Z,10.30
2023-02-17T18:35:12.404Z,10.30
2023-02-17T18:37:41.402Z,10.20
2023-02-17T18:40:12.474Z,10.20
2023-02-17T18:42:40.678Z,10.30
2023-02-17T18:45:10.994Z,10.20
2023-02-17T18:47:39.044Z,10.30
2023-02-17T18:50:09.126Z,10.30
2023-02-17T18:52:38.375Z,10.30
2023-02-17T18:55:06.790Z,10.30
2023-02-17T18:57:35.833Z,10.30
2023-02-17T19:00:04.616Z,10.30
2023-02-17T19:02:36.626Z,10.30
2023-02-17T19:05:05.062Z,10.30
2023-02-17T19:07:33.863Z,10.30
2023-02-17T19:10:02.212Z,10.30
2023-02-17T19:12:30.452Z,10.40
2023-02-17T19:14:58.479Z,10.40
2023-02-17T19:17:27.051Z,10.40
2023-02-17T19:19:56.569Z,10.40
2023-02-17T19:22:24.540Z,10.40
2023-02-17T19:24:54.892Z,10.40
2023-02-17T19:27:22.886Z,10.40
2023-02-17T19:29:50.890Z,10.40
2023-02-17T19:32:18.902Z,10.40
2023-02-17T19:34:46.941Z,10.40
2023-02-17T19:37:16.242Z,10.40
2023-02-17T19:39:44.254Z,10.40
2023-02-17T19:42:12.255Z,10.40
2023-02-17T19:44:40.473Z,10.40
2023-02-17T19:47:08.430Z,10.50
2023-02-17T19:49:36.567Z,10.50
2023-02-17T19:52:06.217Z,10.50
2023-02-17T19:54:35.565Z,10.50
2023-02-17T19:57:03.628Z,10.50
2023-02-17T19:59:34.039Z,10.50
2023-02-17T20:02:02.128Z,10.50
2023-02-17T20:04:30.216Z,10.50
2023-02-17T20:06:58.625Z,10.60
2023-02-17T20:09:26.711Z,10.60
2023-02-17T20:11:56.254Z,10.60
2023-02-17T20:14:24.383Z,10.60
2023-02-17T20:16:55.587Z,10.60
2023-02-17T20:19:24.037Z,10.60
2023-02-17T20:21:52.668Z,10.60
2023-02-17T20:24:20.696Z,10.60
2023-02-17T20:26:50.870Z,10.60
2023-02-17T20:29:20.867Z,10.60
2023-02-17T20:31:49.004Z,10.60
2023-02-17T20:34:27.949Z,10.60
2023-02-17T20:36:56.639Z,10.60
2023-02-17T20:39:25.843Z,10.60
2023-02-17T20:41:54.277Z,10.60
2023-02-17T20:44:27.797Z,10.50
2023-02-17T20:46:57.057Z,10.50
2023-02-17T20:49:25.808Z,10.50
2023-02-17T20:51:54.275Z,10.50
2023-02-17T20:54:24.640Z,10.50
2023-02-17T20:56:52.971Z,10.40
2023-02-17T20:59:21.526Z,10.50
2023-02-17T21:01:50.866Z,10.40
2023-02-17T21:04:18.881Z,10.40
2023-02-17T21:06:47.351Z,10.50
2023-02-17T21:09:18.358Z,10.40
2023-02-17T21:11:46.917Z,10.40
2023-02-17T21:14:15.850Z,10.40
2023-02-17T21:16:43.950Z,10.40
2023-02-17T21:19:13.485Z,10.50
2023-02-17T21:21:41.807Z,10.40
2023-02-17T21:24:09.844Z,10.40
2023-02-17T21:26:37.892Z,10.50
2023-02-17T21:29:06.167Z,10.40
2023-02-17T21:31:34.280Z,10.40
2023-02-17T21:34:02.447Z,10.40
2023-02-17T21:36:31.806Z,10.40
2023-02-17T21:38:59.729Z,10.40
2023-02-17T21:41:30.410Z,10.40
2023-02-17T21:44:16.409Z,10.50
2023-02-17T21:46:45.196Z,10.50
2023-02-17T21:49:14.940Z,10.50
2023-02-17T21:51:44.874Z,10.50
2023-02-17T21:54:13.696Z,10.50
2023-02-17T21:56:41.780Z,10.50
2023-02-17T21:59:09.962Z,10.50
2023-02-17T22:01:37.916Z,10.50
2023-02-17T22:04:06.985Z,10.60
2023-02-17T22:06:36.265Z,10.60
2023-02-17T22:09:07.435Z,10.60
2023-02-17T22:11:37.380Z,10.60
2023-02-17T22:14:07.554Z,10.60
2023-02-17T22:16:36.989Z,10.60
2023-02-17T22:19:07.681Z,10.60
2023-02-17T22:21:36.007Z,10.60
2023-02-17T22:24:05.520Z,10.70
2023-02-17T22:26:33.544Z,10.70
2023-02-17T22:29:01.738Z,10.70
2023-02-17T22:31:31.501Z,10.70
2023-02-17T22:34:01.532Z,10.70
2023-02-17T22:36:33.253Z,10.70
2023-02-17T22:39:01.802Z,10.70
2023-02-17T22:41:31.331Z,10.70
2023-02-17T22:44:00.892Z,10.70
2023-02-17T22:46:28.931Z,10.70
2023-02-17T22:48:58.568Z,10.70
2023-02-17T22:51:28.737Z,10.80
2023-02-17T22:53:56.803Z,10.80
2023-02-17T22:56:25.242Z,10.80
2023-02-17T22:58:56.596Z,10.80
2023-02-17T23:01:25.498Z,10.80
2023-02-17T23:03:55.026Z,10.80
2023-02-17T23:06:25.342Z,10.80
2023-02-17T23:08:53.886Z,10.80
2023-02-17T23:11:44.365Z,10.80
2023-02-17T23:14:15.046Z,10.80
2023-02-17T23:16:43.408Z,10.80
2023-02-17T23:19:13.699Z,10.90
2023-02-17T23:21:44.702Z,10.90
2023-02-17T23:24:12.927Z,10.90
2023-02-17T23:26:41.111Z,10.90
2023-02-17T23:29:09.557Z,10.90
2023-02-17T23:31:39.573Z,10.90
2023-02-17T23:34:08.388Z,10.90
2023-02-17T23:36:38.964Z,10.90
2023-02-17T23:39:07.666Z,10.90
2023-02-17T23:41:37.149Z,10.90
2023-02-17T23:44:06.272Z,11.00
2023-02-17T23:46:34.744Z,11.00
2023-02-17T23:49:04.333Z,11.00
2023-02-17T23:51:32.409Z,11.00
2023-02-17T23:54:00.394Z,11.00
2023-02-17T23:56:30.570Z,11.00
2023-02-17T23:58:58.738Z,11.00
